sensor_id;sensor_type;location;lat;lon;timestamp;temperature;humidity
17208;DHT22;8720;48.488;9.202;2023-05-07T00:01:07;17.60;53.70
17208;DHT22;8720;48.488;9.202;2023-05-07T00:03:35;17.50;53.70
17208;DHT22;8720;48.488;9.202;2023-05-07T00:06:03;17.50;53.90
17208;DHT22;8720;48.488;9.202;2023-05-07T00:08:31;17.50;54.10
17208;DHT22;8720;48.488;9.202;2023-05-07T00:10:58;17.40;54.10
17208;DHT22;8720;48.488;9.202;2023-05-07T00:13:25;17.40;54.00
17208;DHT22;8720;48.488;9.202;2023-05-07T00:15:54;17.40;54.00
17208;DHT22;8720;48.488;9.202;2023-05-07T00:18:21;17.30;54.10
17208;DHT22;8720;48.488;9.202;2023-05-07T00:20:48;17.30;54.20
17208;DHT22;8720;48.488;9.202;2023-05-07T00:23:16;17.30;54.50
17208;DHT22;8720;48.488;9.202;2023-05-07T00:25:43;17.20;54.50
17208;DHT22;8720;48.488;9.202;2023-05-07T00:28:10;17.20;54.70
17208;DHT22;8720;48.488;9.202;2023-05-07T00:30:37;17.20;54.80
17208;DHT22;8720;48.488;9.202;2023-05-07T00:33:06;17.10;54.90
17208;DHT22;8720;48.488;9.202;2023-05-07T00:35:33;17.10;55.00
17208;DHT22;8720;48.488;9.202;2023-05-07T00:38:01;17.10;55.10
17208;DHT22;8720;48.488;9.202;2023-05-07T00:40:28;17.00;55.10
17208;DHT22;8720;48.488;9.202;2023-05-07T00:42:55;17.00;55.20
17208;DHT22;8720;48.488;9.202;2023-05-07T00:45:26;17.00;55.30
17208;DHT22;8720;48.488;9.202;2023-05-07T00:47:54;16.90;55.50
17208;DHT22;8720;48.488;9.202;2023-05-07T00:50:24;16.90;55.50
17208;DHT22;8720;48.488;9.202;2023-05-07T00:52:52;16.80;55.60
17208;DHT22;8720;48.488;9.202;2023-05-07T00:55:20;16.80;55.50
17208;DHT22;8720;48.488;9.202;2023-05-07T00:57:49;16.80;55.50
17208;DHT22;8720;48.488;9.202;2023-05-07T01:00:18;16.80;55.70
17208;DHT22;8720;48.488;9.202;2023-05-07T01:02:45;16.70;55.80
17208;DHT22;8720;48.488;9.202;2023-05-07T01:05:15;16.70;55.80
17208;DHT22;8720;48.488;9.202;2023-05-07T01:07:47;16.70;55.80
17208;DHT22;8720;48.488;9.202;2023-05-07T01:10:16;16.70;56.00
17208;DHT22;8720;48.488;9.202;2023-05-07T01:12:44;16.60;55.90
17208;DHT22;8720;48.488;9.202;2023-05-07T01:15:13;16.60;56.00
17208;DHT22;8720;48.488;9.202;2023-05-07T01:17:42;16.60;56.00
17208;DHT22;8720;48.488;9.202;2023-05-07T01:20:20;16.60;56.20
17208;DHT22;8720;48.488;9.202;2023-05-07T01:22:53;16.50;56.00
17208;DHT22;8720;48.488;9.202;2023-05-07T01:25:22;16.50;56.10
17208;DHT22;8720;48.488;9.202;2023-05-07T01:27:53;16.50;56.00
17208;DHT22;8720;48.488;9.202;2023-05-07T01:30:24;16.50;56.20
17208;DHT22;8720;48.488;9.202;2023-05-07T01:32:58;16.50;56.40
17208;DHT22;8720;48.488;9.202;2023-05-07T01:35:30;16.50;56.30
17208;DHT22;8720;48.488;9.202;2023-05-07T01:38:04;16.40;56.40
17208;DHT22;8720;48.488;9.202;2023-05-07T01:40:32;16.40;56.60
17208;DHT22;8720;48.488;9.202;2023-05-07T01:43:01;16.40;56.60
17208;DHT22;8720;48.488;9.202;2023-05-07T01:45:30;16.40;56.70
17208;DHT22;8720;48.488;9.202;2023-05-07T01:48:00;16.30;56.80
17208;DHT22;8720;48.488;9.202;2023-05-07T01:50:28;16.30;56.80
17208;DHT22;8720;48.488;9.202;2023-05-07T01:52:57;16.30;56.90
17208;DHT22;8720;48.488;9.202;2023-05-07T01:55:26;16.20;57.00
17208;DHT22;8720;48.488;9.202;2023-05-07T01:57:53;16.20;57.20
17208;DHT22;8720;48.488;9.202;2023-05-07T02:03:04;16.10;57.20
17208;DHT22;8720;48.488;9.202;2023-05-07T02:05:40;16.10;57.30
17208;DHT22;8720;48.488;9.202;2023-05-07T02:08:14;16.00;57.20
17208;DHT22;8720;48.488;9.202;2023-05-07T02:10:43;16.00;57.40
17208;DHT22;8720;48.488;9.202;2023-05-07T02:13:10;15.90;57.50
17208;DHT22;8720;48.488;9.202;2023-05-07T02:15:38;15.90;57.60
17208;DHT22;8720;48.488;9.202;2023-05-07T02:18:07;15.80;57.60
17208;DHT22;8720;48.488;9.202;2023-05-07T02:20:35;15.80;57.80
17208;DHT22;8720;48.488;9.202;2023-05-07T02:23:03;15.70;57.80
17208;DHT22;8720;48.488;9.202;2023-05-07T02:25:30;15.70;57.90
17208;DHT22;8720;48.488;9.202;2023-05-07T02:27:59;15.60;57.90
17208;DHT22;8720;48.488;9.202;2023-05-07T02:30:47;15.60;58.10
17208;DHT22;8720;48.488;9.202;2023-05-07T02:33:15;15.50;58.00
17208;DHT22;8720;48.488;9.202;2023-05-07T02:35:42;15.50;58.20
17208;DHT22;8720;48.488;9.202;2023-05-07T02:38:11;15.50;58.40
17208;DHT22;8720;48.488;9.202;2023-05-07T02:40:40;15.40;58.40
17208;DHT22;8720;48.488;9.202;2023-05-07T02:43:09;15.40;58.60
17208;DHT22;8720;48.488;9.202;2023-05-07T02:45:37;15.40;58.80
17208;DHT22;8720;48.488;9.202;2023-05-07T02:48:06;15.30;58.70
17208;DHT22;8720;48.488;9.202;2023-05-07T02:50:33;15.30;58.80
17208;DHT22;8720;48.488;9.202;2023-05-07T02:53:01;15.20;58.70
17208;DHT22;8720;48.488;9.202;2023-05-07T02:55:28;15.20;58.90
17208;DHT22;8720;48.488;9.202;2023-05-07T02:57:56;15.20;58.90
17208;DHT22;8720;48.488;9.202;2023-05-07T03:00:25;15.10;58.90
17208;DHT22;8720;48.488;9.202;2023-05-07T03:03:07;15.10;59.30
17208;DHT22;8720;48.488;9.202;2023-05-07T03:05:34;15.00;59.70
17208;DHT22;8720;48.488;9.202;2023-05-07T03:08:02;15.00;59.10
17208;DHT22;8720;48.488;9.202;2023-05-07T03:10:29;15.00;59.30
17208;DHT22;8720;48.488;9.202;2023-05-07T03:12:57;14.90;59.50
17208;DHT22;8720;48.488;9.202;2023-05-07T03:15:26;14.90;59.50
17208;DHT22;8720;48.488;9.202;2023-05-07T03:17:53;14.90;59.80
17208;DHT22;8720;48.488;9.202;2023-05-07T03:20:20;14.80;59.80
17208;DHT22;8720;48.488;9.202;2023-05-07T03:22:47;14.80;59.80
17208;DHT22;8720;48.488;9.202;2023-05-07T03:25:15;14.70;59.80
17208;DHT22;8720;48.488;9.202;2023-05-07T03:27:42;14.70;59.80
17208;DHT22;8720;48.488;9.202;2023-05-07T03:30:11;14.60;59.80
17208;DHT22;8720;48.488;9.202;2023-05-07T03:32:40;14.60;59.90
17208;DHT22;8720;48.488;9.202;2023-05-07T03:35:10;14.60;60.00
17208;DHT22;8720;48.488;9.202;2023-05-07T03:37:38;14.50;59.90
17208;DHT22;8720;48.488;9.202;2023-05-07T03:40:07;14.50;60.00
17208;DHT22;8720;48.488;9.202;2023-05-07T03:42:42;14.50;60.20
17208;DHT22;8720;48.488;9.202;2023-05-07T03:45:11;14.50;60.30
17208;DHT22;8720;48.488;9.202;2023-05-07T03:47:44;14.40;60.30
17208;DHT22;8720;48.488;9.202;2023-05-07T03:50:15;14.40;60.50
17208;DHT22;8720;48.488;9.202;2023-05-07T03:52:43;14.40;60.60
17208;DHT22;8720;48.488;9.202;2023-05-07T03:55:14;14.40;61.40
17208;DHT22;8720;48.488;9.202;2023-05-07T03:57:48;14.40;61.20
17208;DHT22;8720;48.488;9.202;2023-05-07T04:00:15;14.40;61.10
17208;DHT22;8720;48.488;9.202;2023-05-07T04:02:47;14.40;61.10
17208;DHT22;8720;48.488;9.202;2023-05-07T04:05:21;14.30;61.30
17208;DHT22;8720;48.488;9.202;2023-05-07T04:07:51;14.30;61.30
17208;DHT22;8720;48.488;9.202;2023-05-07T04:10:24;14.30;61.40
17208;DHT22;8720;48.488;9.202;2023-05-07T04:12:54;14.30;61.40
17208;DHT22;8720;48.488;9.202;2023-05-07T04:15:23;14.30;61.50
17208;DHT22;8720;48.488;9.202;2023-05-07T04:17:52;14.30;61.50
17208;DHT22;8720;48.488;9.202;2023-05-07T04:20:21;14.30;61.60
17208;DHT22;8720;48.488;9.202;2023-05-07T04:22:54;14.30;61.50
17208;DHT22;8720;48.488;9.202;2023-05-07T04:25:22;14.30;61.60
17208;DHT22;8720;48.488;9.202;2023-05-07T04:27:56;14.30;62.50
17208;DHT22;8720;48.488;9.202;2023-05-07T04:30:26;14.30;62.50
17208;DHT22;8720;48.488;9.202;2023-05-07T04:32:55;14.30;62.00
17208;DHT22;8720;48.488;9.202;2023-05-07T04:35:25;14.30;62.60
17208;DHT22;8720;48.488;9.202;2023-05-07T04:37:53;14.40;63.90
17208;DHT22;8720;48.488;9.202;2023-05-07T04:40:20;14.60;64.40
17208;DHT22;8720;48.488;9.202;2023-05-07T04:42:48;14.80;65.10
17208;DHT22;8720;48.488;9.202;2023-05-07T04:45:16;15.10;65.50
17208;DHT22;8720;48.488;9.202;2023-05-07T04:47:45;15.50;65.40
17208;DHT22;8720;48.488;9.202;2023-05-07T04:50:14;15.90;64.90
17208;DHT22;8720;48.488;9.202;2023-05-07T04:52:43;16.30;64.00
17208;DHT22;8720;48.488;9.202;2023-05-07T04:55:11;16.60;63.00
17208;DHT22;8720;48.488;9.202;2023-05-07T04:57:40;16.90;61.90
17208;DHT22;8720;48.488;9.202;2023-05-07T05:00:10;17.10;61.00
17208;DHT22;8720;48.488;9.202;2023-05-07T05:02:40;17.20;60.10
17208;DHT22;8720;48.488;9.202;2023-05-07T05:05:08;17.30;59.90
17208;DHT22;8720;48.488;9.202;2023-05-07T05:07:37;17.30;59.60
17208;DHT22;8720;48.488;9.202;2023-05-07T05:10:06;17.40;59.40
17208;DHT22;8720;48.488;9.202;2023-05-07T05:12:37;17.50;59.80
17208;DHT22;8720;48.488;9.202;2023-05-07T05:15:05;17.60;59.60
17208;DHT22;8720;48.488;9.202;2023-05-07T05:17:34;17.70;59.30
17208;DHT22;8720;48.488;9.202;2023-05-07T05:20:05;17.90;59.70
17208;DHT22;8720;48.488;9.202;2023-05-07T05:22:33;18.10;59.40
17208;DHT22;8720;48.488;9.202;2023-05-07T05:25:03;18.30;59.60
17208;DHT22;8720;48.488;9.202;2023-05-07T05:27:31;18.50;59.20
17208;DHT22;8720;48.488;9.202;2023-05-07T05:29:59;18.70;59.30
17208;DHT22;8720;48.488;9.202;2023-05-07T05:32:27;19.00;58.80
17208;DHT22;8720;48.488;9.202;2023-05-07T05:34:56;19.30;58.20
17208;DHT22;8720;48.488;9.202;2023-05-07T05:37:26;19.50;57.40
17208;DHT22;8720;48.488;9.202;2023-05-07T05:39:54;19.70;56.50
17208;DHT22;8720;48.488;9.202;2023-05-07T05:42:23;19.70;55.70
17208;DHT22;8720;48.488;9.202;2023-05-07T05:44:50;19.70;55.10
17208;DHT22;8720;48.488;9.202;2023-05-07T05:47:17;19.70;55.50
17208;DHT22;8720;48.488;9.202;2023-05-07T05:49:45;19.90;55.70
17208;DHT22;8720;48.488;9.202;2023-05-07T05:52:15;20.10;55.90
17208;DHT22;8720;48.488;9.202;2023-05-07T05:54:43;20.20;55.40
17208;DHT22;8720;48.488;9.202;2023-05-07T05:57:10;20.50;55.00
17208;DHT22;8720;48.488;9.202;2023-05-07T05:59:39;20.70;54.80
17208;DHT22;8720;48.488;9.202;2023-05-07T06:02:06;20.90;54.30
17208;DHT22;8720;48.488;9.202;2023-05-07T06:04:34;21.20;54.30
17208;DHT22;8720;48.488;9.202;2023-05-07T06:07:02;21.40;54.20
17208;DHT22;8720;48.488;9.202;2023-05-07T06:09:29;21.60;54.10
17208;DHT22;8720;48.488;9.202;2023-05-07T06:11:56;21.90;53.50
17208;DHT22;8720;48.488;9.202;2023-05-07T06:14:24;22.10;53.10
17208;DHT22;8720;48.488;9.202;2023-05-07T06:16:53;22.30;52.80
17208;DHT22;8720;48.488;9.202;2023-05-07T06:19:20;22.50;52.40
17208;DHT22;8720;48.488;9.202;2023-05-07T06:21:50;22.70;52.30
17208;DHT22;8720;48.488;9.202;2023-05-07T06:24:17;23.00;51.70
17208;DHT22;8720;48.488;9.202;2023-05-07T06:26:44;23.10;51.30
17208;DHT22;8720;48.488;9.202;2023-05-07T06:29:13;23.30;50.90
17208;DHT22;8720;48.488;9.202;2023-05-07T06:31:42;23.40;50.90
17208;DHT22;8720;48.488;9.202;2023-05-07T06:34:12;23.40;50.60
17208;DHT22;8720;48.488;9.202;2023-05-07T06:36:41;23.60;50.50
17208;DHT22;8720;48.488;9.202;2023-05-07T06:39:16;23.70;50.40
17208;DHT22;8720;48.488;9.202;2023-05-07T06:41:44;23.90;50.00
17208;DHT22;8720;48.488;9.202;2023-05-07T06:44:21;23.90;49.80
17208;DHT22;8720;48.488;9.202;2023-05-07T06:46:58;24.00;49.40
17208;DHT22;8720;48.488;9.202;2023-05-07T06:49:27;24.10;49.40
17208;DHT22;8720;48.488;9.202;2023-05-07T06:51:55;24.10;48.10
17208;DHT22;8720;48.488;9.202;2023-05-07T06:54:22;24.20;48.20
17208;DHT22;8720;48.488;9.202;2023-05-07T06:56:50;24.20;48.40
17208;DHT22;8720;48.488;9.202;2023-05-07T06:59:17;24.20;45.20
17208;DHT22;8720;48.488;9.202;2023-05-07T07:01:45;24.10;46.40
17208;DHT22;8720;48.488;9.202;2023-05-07T07:04:12;24.00;46.90
17208;DHT22;8720;48.488;9.202;2023-05-07T07:06:43;23.90;46.90
17208;DHT22;8720;48.488;9.202;2023-05-07T07:09:12;23.90;46.30
17208;DHT22;8720;48.488;9.202;2023-05-07T07:11:40;23.80;47.00
17208;DHT22;8720;48.488;9.202;2023-05-07T07:14:08;23.90;46.90
17208;DHT22;8720;48.488;9.202;2023-05-07T07:16:43;24.00;47.30
17208;DHT22;8720;48.488;9.202;2023-05-07T07:19:13;24.30;47.20
17208;DHT22;8720;48.488;9.202;2023-05-07T07:21:43;24.70;47.20
17208;DHT22;8720;48.488;9.202;2023-05-07T07:24:13;25.10;47.00
17208;DHT22;8720;48.488;9.202;2023-05-07T07:26:45;25.50;46.30
17208;DHT22;8720;48.488;9.202;2023-05-07T07:29:15;25.90;45.70
17208;DHT22;8720;48.488;9.202;2023-05-07T07:31:45;26.20;45.90
17208;DHT22;8720;48.488;9.202;2023-05-07T07:34:12;26.60;45.30
17208;DHT22;8720;48.488;9.202;2023-05-07T07:36:40;27.00;44.30
17208;DHT22;8720;48.488;9.202;2023-05-07T07:39:09;27.40;43.70
17208;DHT22;8720;48.488;9.202;2023-05-07T07:41:37;27.80;43.10
17208;DHT22;8720;48.488;9.202;2023-05-07T07:44:04;28.10;43.00
17208;DHT22;8720;48.488;9.202;2023-05-07T07:46:35;28.40;42.50
17208;DHT22;8720;48.488;9.202;2023-05-07T07:49:03;28.70;42.10
17208;DHT22;8720;48.488;9.202;2023-05-07T07:51:31;28.90;41.50
17208;DHT22;8720;48.488;9.202;2023-05-07T07:54:00;29.00;41.10
17208;DHT22;8720;48.488;9.202;2023-05-07T07:56:32;29.10;41.00
17208;DHT22;8720;48.488;9.202;2023-05-07T07:59:01;29.00;39.90
17208;DHT22;8720;48.488;9.202;2023-05-07T08:01:32;28.90;40.10
17208;DHT22;8720;48.488;9.202;2023-05-07T08:04:00;28.70;39.80
17208;DHT22;8720;48.488;9.202;2023-05-07T08:06:30;28.50;39.60
17208;DHT22;8720;48.488;9.202;2023-05-07T08:08:57;28.10;39.70
17208;DHT22;8720;48.488;9.202;2023-05-07T08:11:25;27.80;40.70
17208;DHT22;8720;48.488;9.202;2023-05-07T08:13:56;27.50;40.10
17208;DHT22;8720;48.488;9.202;2023-05-07T08:16:24;27.20;40.10
17208;DHT22;8720;48.488;9.202;2023-05-07T08:18:52;26.90;40.50
17208;DHT22;8720;48.488;9.202;2023-05-07T08:21:19;26.60;40.80
17208;DHT22;8720;48.488;9.202;2023-05-07T08:23:47;26.40;40.90
17208;DHT22;8720;48.488;9.202;2023-05-07T08:26:14;26.10;41.40
17208;DHT22;8720;48.488;9.202;2023-05-07T08:28:42;25.80;42.00
17208;DHT22;8720;48.488;9.202;2023-05-07T08:31:11;25.60;42.00
17208;DHT22;8720;48.488;9.202;2023-05-07T08:33:40;25.40;42.20
17208;DHT22;8720;48.488;9.202;2023-05-07T08:36:08;25.20;42.80
17208;DHT22;8720;48.488;9.202;2023-05-07T08:38:35;25.00;43.10
17208;DHT22;8720;48.488;9.202;2023-05-07T08:41:03;24.80;43.50
17208;DHT22;8720;48.488;9.202;2023-05-07T08:43:32;24.70;43.70
17208;DHT22;8720;48.488;9.202;2023-05-07T08:46:03;24.60;43.80
17208;DHT22;8720;48.488;9.202;2023-05-07T08:48:37;24.50;44.00
17208;DHT22;8720;48.488;9.202;2023-05-07T08:51:12;24.40;44.10
17208;DHT22;8720;48.488;9.202;2023-05-07T08:53:41;24.20;44.00
17208;DHT22;8720;48.488;9.202;2023-05-07T08:56:11;24.20;44.40
17208;DHT22;8720;48.488;9.202;2023-05-07T08:58:41;24.10;44.60
17208;DHT22;8720;48.488;9.202;2023-05-07T09:01:12;24.00;45.30
17208;DHT22;8720;48.488;9.202;2023-05-07T09:03:46;23.90;45.40
17208;DHT22;8720;48.488;9.202;2023-05-07T09:06:15;24.00;46.30
17208;DHT22;8720;48.488;9.202;2023-05-07T09:08:49;24.00;46.60
17208;DHT22;8720;48.488;9.202;2023-05-07T09:11:20;24.10;46.60
17208;DHT22;8720;48.488;9.202;2023-05-07T09:13:49;24.20;46.70
17208;DHT22;8720;48.488;9.202;2023-05-07T09:16:21;24.30;46.60
17208;DHT22;8720;48.488;9.202;2023-05-07T09:18:52;24.40;46.50
17208;DHT22;8720;48.488;9.202;2023-05-07T09:21:22;24.50;46.40
17208;DHT22;8720;48.488;9.202;2023-05-07T09:23:52;24.60;46.40
17208;DHT22;8720;48.488;9.202;2023-05-07T09:26:23;24.70;46.40
17208;DHT22;8720;48.488;9.202;2023-05-07T09:28:51;24.80;46.10
17208;DHT22;8720;48.488;9.202;2023-05-07T09:31:20;24.90;46.30
17208;DHT22;8720;48.488;9.202;2023-05-07T09:33:51;25.00;46.30
17208;DHT22;8720;48.488;9.202;2023-05-07T09:36:23;25.20;46.40
17208;DHT22;8720;48.488;9.202;2023-05-07T09:38:50;25.30;45.90
17208;DHT22;8720;48.488;9.202;2023-05-07T09:41:19;25.30;45.70
17208;DHT22;8720;48.488;9.202;2023-05-07T09:43:59;25.40;46.10
17208;DHT22;8720;48.488;9.202;2023-05-07T09:46:36;25.50;45.90
17208;DHT22;8720;48.488;9.202;2023-05-07T09:49:21;25.60;45.50
17208;DHT22;8720;48.488;9.202;2023-05-07T09:51:58;25.60;44.90
17208;DHT22;8720;48.488;9.202;2023-05-07T09:54:29;25.70;45.30
17208;DHT22;8720;48.488;9.202;2023-05-07T09:57:01;25.80;45.10
17208;DHT22;8720;48.488;9.202;2023-05-07T09:59:31;25.80;44.90
17208;DHT22;8720;48.488;9.202;2023-05-07T10:02:03;25.80;44.80
17208;DHT22;8720;48.488;9.202;2023-05-07T10:04:38;25.90;44.60
17208;DHT22;8720;48.488;9.202;2023-05-07T10:07:08;25.90;44.30
17208;DHT22;8720;48.488;9.202;2023-05-07T10:09:36;25.90;44.30
17208;DHT22;8720;48.488;9.202;2023-05-07T10:12:13;26.00;44.20
17208;DHT22;8720;48.488;9.202;2023-05-07T10:14:41;26.00;44.90
17208;DHT22;8720;48.488;9.202;2023-05-07T10:17:09;26.10;43.80
17208;DHT22;8720;48.488;9.202;2023-05-07T10:19:43;26.10;43.20
17208;DHT22;8720;48.488;9.202;2023-05-07T10:22:13;26.20;43.50
17208;DHT22;8720;48.488;9.202;2023-05-07T10:24:45;26.20;43.50
17208;DHT22;8720;48.488;9.202;2023-05-07T10:27:17;26.20;43.00
17208;DHT22;8720;48.488;9.202;2023-05-07T10:29:56;26.30;43.30
17208;DHT22;8720;48.488;9.202;2023-05-07T10:32:39;26.40;42.50
17208;DHT22;8720;48.488;9.202;2023-05-07T10:35:19;26.40;42.20
17208;DHT22;8720;48.488;9.202;2023-05-07T10:37:50;26.50;42.30
17208;DHT22;8720;48.488;9.202;2023-05-07T10:40:20;26.50;42.00
17208;DHT22;8720;48.488;9.202;2023-05-07T10:42:59;26.60;41.70
17208;DHT22;8720;48.488;9.202;2023-05-07T10:45:33;26.70;40.90
17208;DHT22;8720;48.488;9.202;2023-05-07T10:48:06;26.70;42.10
17208;DHT22;8720;48.488;9.202;2023-05-07T10:50:40;26.70;41.80
17208;DHT22;8720;48.488;9.202;2023-05-07T10:53:23;26.80;41.70
17208;DHT22;8720;48.488;9.202;2023-05-07T10:56:26;26.80;41.60
17208;DHT22;8720;48.488;9.202;2023-05-07T10:59:34;26.90;40.50
17208;DHT22;8720;48.488;9.202;2023-05-07T11:02:18;26.80;40.40
17208;DHT22;8720;48.488;9.202;2023-05-07T11:05:20;26.80;40.50
17208;DHT22;8720;48.488;9.202;2023-05-07T11:08:54;26.80;40.00
17208;DHT22;8720;48.488;9.202;2023-05-07T11:11:45;26.70;40.00
17208;DHT22;8720;48.488;9.202;2023-05-07T11:14:42;26.70;40.40
17208;DHT22;8720;48.488;9.202;2023-05-07T11:17:18;26.60;42.30
17208;DHT22;8720;48.488;9.202;2023-05-07T11:19:53;26.60;43.10
17208;DHT22;8720;48.488;9.202;2023-05-07T11:22:38;26.60;44.60
17208;DHT22;8720;48.488;9.202;2023-05-07T11:25:19;26.50;46.00
17208;DHT22;8720;48.488;9.202;2023-05-07T11:27:53;26.50;46.30
17208;DHT22;8720;48.488;9.202;2023-05-07T11:30:30;26.30;45.70
17208;DHT22;8720;48.488;9.202;2023-05-07T11:32:59;26.00;45.10
17208;DHT22;8720;48.488;9.202;2023-05-07T11:35:26;25.60;46.10
17208;DHT22;8720;48.488;9.202;2023-05-07T11:37:59;25.20;47.60
17208;DHT22;8720;48.488;9.202;2023-05-07T11:40:29;24.70;46.90
17208;DHT22;8720;48.488;9.202;2023-05-07T11:42:56;24.20;50.30
17208;DHT22;8720;48.488;9.202;2023-05-07T11:45:24;23.70;52.00
17208;DHT22;8720;48.488;9.202;2023-05-07T11:47:51;23.30;53.80
17208;DHT22;8720;48.488;9.202;2023-05-07T11:50:19;22.90;55.10
17208;DHT22;8720;48.488;9.202;2023-05-07T11:52:50;22.60;55.80
17208;DHT22;8720;48.488;9.202;2023-05-07T11:55:18;22.40;56.90
17208;DHT22;8720;48.488;9.202;2023-05-07T11:57:48;22.20;57.50
17208;DHT22;8720;48.488;9.202;2023-05-07T12:00:16;22.00;58.00
17208;DHT22;8720;48.488;9.202;2023-05-07T12:02:45;21.90;59.00
17208;DHT22;8720;48.488;9.202;2023-05-07T12:05:12;21.90;59.20
17208;DHT22;8720;48.488;9.202;2023-05-07T12:07:40;21.80;60.20
17208;DHT22;8720;48.488;9.202;2023-05-07T12:10:08;21.80;60.20
17208;DHT22;8720;48.488;9.202;2023-05-07T12:12:40;21.80;59.80
17208;DHT22;8720;48.488;9.202;2023-05-07T12:15:10;21.80;59.40
17208;DHT22;8720;48.488;9.202;2023-05-07T12:17:37;21.80;59.80
17208;DHT22;8720;48.488;9.202;2023-05-07T12:20:07;21.80;60.70
17208;DHT22;8720;48.488;9.202;2023-05-07T12:22:35;21.90;60.80
17208;DHT22;8720;48.488;9.202;2023-05-07T12:25:03;21.90;61.90
17208;DHT22;8720;48.488;9.202;2023-05-07T12:27:32;21.90;63.10
17208;DHT22;8720;48.488;9.202;2023-05-07T12:30:04;22.00;64.10
17208;DHT22;8720;48.488;9.202;2023-05-07T12:32:34;22.00;65.10
17208;DHT22;8720;48.488;9.202;2023-05-07T12:35:03;22.00;63.50
17208;DHT22;8720;48.488;9.202;2023-05-07T12:37:33;22.00;63.30
17208;DHT22;8720;48.488;9.202;2023-05-07T12:40:07;22.00;63.80
17208;DHT22;8720;48.488;9.202;2023-05-07T12:42:36;22.00;63.10
17208;DHT22;8720;48.488;9.202;2023-05-07T12:45:09;22.00;64.30
17208;DHT22;8720;48.488;9.202;2023-05-07T12:47:38;22.00;64.30
17208;DHT22;8720;48.488;9.202;2023-05-07T12:50:06;22.00;65.00
17208;DHT22;8720;48.488;9.202;2023-05-07T12:52:34;21.90;65.70
17208;DHT22;8720;48.488;9.202;2023-05-07T12:55:06;21.90;66.20
17208;DHT22;8720;48.488;9.202;2023-05-07T12:57:38;21.90;65.90
17208;DHT22;8720;48.488;9.202;2023-05-07T13:00:07;21.80;66.70
17208;DHT22;8720;48.488;9.202;2023-05-07T13:02:40;21.80;67.50
17208;DHT22;8720;48.488;9.202;2023-05-07T13:05:10;21.70;67.50
17208;DHT22;8720;48.488;9.202;2023-05-07T13:07:37;21.70;68.20
17208;DHT22;8720;48.488;9.202;2023-05-07T13:10:05;21.60;68.60
17208;DHT22;8720;48.488;9.202;2023-05-07T13:12:33;21.60;68.60
17208;DHT22;8720;48.488;9.202;2023-05-07T13:15:01;21.60;67.90
17208;DHT22;8720;48.488;9.202;2023-05-07T13:17:28;21.50;66.80
17208;DHT22;8720;48.488;9.202;2023-05-07T13:19:58;21.40;65.60
17208;DHT22;8720;48.488;9.202;2023-05-07T13:22:25;21.30;65.00
17208;DHT22;8720;48.488;9.202;2023-05-07T13:24:52;21.20;65.30
17208;DHT22;8720;48.488;9.202;2023-05-07T13:27:20;21.00;65.30
17208;DHT22;8720;48.488;9.202;2023-05-07T13:29:47;20.80;65.70
17208;DHT22;8720;48.488;9.202;2023-05-07T13:32:14;20.70;66.10
17208;DHT22;8720;48.488;9.202;2023-05-07T13:34:42;20.60;66.40
17208;DHT22;8720;48.488;9.202;2023-05-07T13:37:10;20.40;66.80
17208;DHT22;8720;48.488;9.202;2023-05-07T13:39:38;20.30;66.90
17208;DHT22;8720;48.488;9.202;2023-05-07T13:42:06;20.10;67.30
17208;DHT22;8720;48.488;9.202;2023-05-07T13:44:33;20.00;67.90
17208;DHT22;8720;48.488;9.202;2023-05-07T13:47:01;19.80;68.20
17208;DHT22;8720;48.488;9.202;2023-05-07T13:49:28;19.70;68.40
17208;DHT22;8720;48.488;9.202;2023-05-07T13:51:56;19.60;68.90
17208;DHT22;8720;48.488;9.202;2023-05-07T13:54:25;19.50;69.40
17208;DHT22;8720;48.488;9.202;2023-05-07T13:56:52;19.40;69.60
17208;DHT22;8720;48.488;9.202;2023-05-07T13:59:19;19.30;70.10
17208;DHT22;8720;48.488;9.202;2023-05-07T14:01:46;19.20;70.40
17208;DHT22;8720;48.488;9.202;2023-05-07T14:04:15;19.20;70.60
17208;DHT22;8720;48.488;9.202;2023-05-07T14:06:43;19.10;70.80
17208;DHT22;8720;48.488;9.202;2023-05-07T14:09:10;19.00;70.90
17208;DHT22;8720;48.488;9.202;2023-05-07T14:11:40;19.00;71.40
17208;DHT22;8720;48.488;9.202;2023-05-07T14:14:08;18.90;71.70
17208;DHT22;8720;48.488;9.202;2023-05-07T14:16:36;18.80;72.10
17208;DHT22;8720;48.488;9.202;2023-05-07T14:19:03;18.80;72.50
17208;DHT22;8720;48.488;9.202;2023-05-07T14:21:31;18.70;72.60
17208;DHT22;8720;48.488;9.202;2023-05-07T14:23:58;18.70;73.00
17208;DHT22;8720;48.488;9.202;2023-05-07T14:26:25;18.70;73.00
17208;DHT22;8720;48.488;9.202;2023-05-07T14:28:55;18.60;72.50
17208;DHT22;8720;48.488;9.202;2023-05-07T14:31:24;18.50;72.70
17208;DHT22;8720;48.488;9.202;2023-05-07T14:33:52;18.50;73.20
17208;DHT22;8720;48.488;9.202;2023-05-07T14:36:19;18.40;73.30
17208;DHT22;8720;48.488;9.202;2023-05-07T14:38:48;18.30;74.10
17208;DHT22;8720;48.488;9.202;2023-05-07T14:41:15;18.30;75.50
17208;DHT22;8720;48.488;9.202;2023-05-07T14:43:43;18.20;76.60
17208;DHT22;8720;48.488;9.202;2023-05-07T14:46:17;18.20;76.60
17208;DHT22;8720;48.488;9.202;2023-05-07T14:48:44;18.20;76.20
17208;DHT22;8720;48.488;9.202;2023-05-07T14:51:12;18.20;76.70
17208;DHT22;8720;48.488;9.202;2023-05-07T14:53:41;18.10;77.10
17208;DHT22;8720;48.488;9.202;2023-05-07T14:56:08;18.10;78.00
17208;DHT22;8720;48.488;9.202;2023-05-07T14:58:36;18.20;78.20
17208;DHT22;8720;48.488;9.202;2023-05-07T15:01:03;18.20;78.20
17208;DHT22;8720;48.488;9.202;2023-05-07T15:03:32;18.20;78.10
17208;DHT22;8720;48.488;9.202;2023-05-07T15:06:01;18.20;78.20
17208;DHT22;8720;48.488;9.202;2023-05-07T15:08:29;18.20;78.60
17208;DHT22;8720;48.488;9.202;2023-05-07T15:10:56;18.30;78.50
17208;DHT22;8720;48.488;9.202;2023-05-07T15:13:23;18.30;77.60
17208;DHT22;8720;48.488;9.202;2023-05-07T15:15:52;18.40;78.40
17208;DHT22;8720;48.488;9.202;2023-05-07T15:18:19;18.40;79.60
17208;DHT22;8720;48.488;9.202;2023-05-07T15:20:48;18.50;80.90
17208;DHT22;8720;48.488;9.202;2023-05-07T15:23:17;18.60;78.90
17208;DHT22;8720;48.488;9.202;2023-05-07T15:25:47;18.70;79.00
17208;DHT22;8720;48.488;9.202;2023-05-07T15:28:14;18.80;79.50
17208;DHT22;8720;48.488;9.202;2023-05-07T15:30:42;18.90;80.50
17208;DHT22;8720;48.488;9.202;2023-05-07T15:33:09;19.00;81.60
17208;DHT22;8720;48.488;9.202;2023-05-07T15:35:36;19.00;81.10
17208;DHT22;8720;48.488;9.202;2023-05-07T15:38:05;19.10;80.70
17208;DHT22;8720;48.488;9.202;2023-05-07T15:40:34;19.20;79.30
17208;DHT22;8720;48.488;9.202;2023-05-07T15:43:03;19.30;78.60
17208;DHT22;8720;48.488;9.202;2023-05-07T15:45:30;19.30;78.60
17208;DHT22;8720;48.488;9.202;2023-05-07T15:47:58;19.40;79.30
17208;DHT22;8720;48.488;9.202;2023-05-07T15:50:25;19.50;80.00
17208;DHT22;8720;48.488;9.202;2023-05-07T15:52:54;19.50;80.30
17208;DHT22;8720;48.488;9.202;2023-05-07T15:55:23;19.60;79.60
17208;DHT22;8720;48.488;9.202;2023-05-07T15:57:50;19.70;79.00
17208;DHT22;8720;48.488;9.202;2023-05-07T16:00:20;19.70;79.40
17208;DHT22;8720;48.488;9.202;2023-05-07T16:02:47;19.70;79.10
17208;DHT22;8720;48.488;9.202;2023-05-07T16:05:14;19.80;78.70